Time;durP1;ratioP1;P1;durP2;ratioP2;P2;SDS_P1;SDS_P2;PMS_P1;PMS_P2;Temp;Humidity;BMP_temperature;BMP_pressure;BME280_temperature;BME280_humidity;BME280_pressure;Samples;Min_cycle;Max_cycle;Signal;HPM_P1;HPM_P2
2021/12/24 00:01:09;;;;;;;60.40;33.13;;;;;;;6.08;100.00;100390.16;4992547;28;20128;-58
2021/12/24 00:03:35;;;;;;;52.95;29.67;;;;;;;6.16;100.00;100398.91;4992857;28;20281;-57
2021/12/24 00:06:03;;;;;;;55.58;31.55;;;;;;;6.14;100.00;100401.94;4992745;28;20030;-58
2021/12/24 00:08:28;;;;;;;53.38;31.85;;;;;;;6.17;100.00;100403.28;4992466;28;20038;-57
2021/12/24 00:10:59;;;;;;;54.15;31.65;;;;;;;6.20;100.00;100394.47;4992708;28;20030;-57
2021/12/24 00:13:33;;;;;;;48.20;28.67;;;;;;;6.21;100.00;100398.88;4992825;28;20033;-57
2021/12/24 00:16:07;;;;;;;51.20;30.73;;;;;;;6.21;100.00;100385.13;4992860;28;20027;-58
2021/12/24 00:18:40;;;;;;;54.17;31.05;;;;;;;6.22;100.00;100395.81;4992690;28;20062;-59
2021/12/24 00:37:23;;;;;;;46.60;28.15;;;;;;;6.31;100.00;100387.78;4992224;28;20049;-57
2021/12/24 00:42:29;;;;;;;45.47;29.42;;;;;;;6.33;100.00;100377.31;4996196;28;20038;-56
2021/12/24 00:44:55;;;;;;;44.60;28.20;;;;;;;6.35;100.00;100377.03;4996230;28;20526;-56
2021/12/24 00:47:20;;;;;;;44.88;28.02;;;;;;;6.34;100.00;100378.94;4996312;28;20050;-58
2021/12/24 00:49:45;;;;;;;43.05;27.63;;;;;;;6.42;100.00;100373.97;4996373;28;20057;-58
2021/12/24 00:55:03;;;;;;;43.22;27.40;;;;;;;6.44;100.00;100368.97;4996417;28;20030;-57
2021/12/24 00:57:33;;;;;;;46.92;27.60;;;;;;;6.44;100.00;100369.81;4996160;28;20457;-57
2021/12/24 00:59:58;;;;;;;39.55;24.25;;;;;;;6.48;100.00;100367.28;4996477;28;20048;-58
2021/12/24 01:02:23;;;;;;;45.63;27.95;;;;;;;6.50;100.00;100367.81;4995165;28;20436;-57
2021/12/24 01:04:49;;;;;;;48.53;29.63;;;;;;;6.51;100.00;100369.47;4996103;28;20030;-57
2021/12/24 01:07:14;;;;;;;49.67;28.83;;;;;;;6.52;100.00;100362.84;4996253;28;20031;-58
2021/12/24 01:09:40;;;;;;;46.38;29.45;;;;;;;6.54;100.00;100357.88;4995866;28;20539;-57
2021/12/24 01:12:06;;;;;;;47.92;30.08;;;;;;;6.59;100.00;100351.50;4994864;28;20584;-56
2021/12/24 01:14:31;;;;;;;45.60;29.48;;;;;;;6.57;100.00;100360.06;4995620;28;20068;-56
2021/12/24 01:17:16;;;;;;;44.17;29.20;;;;;;;6.57;100.00;100365.56;4994932;28;20033;-57
2021/12/24 01:19:44;;;;;;;48.97;30.13;;;;;;;6.60;100.00;100364.16;4995564;28;20117;-57
2021/12/24 01:24:52;;;;;;;46.03;29.55;;;;;;;6.63;100.00;100364.38;4996245;28;20042;-58
2021/12/24 01:27:51;;;;;;;45.97;29.98;;;;;;;6.63;100.00;100358.06;4995534;28;20030;-58
2021/12/24 01:38:49;;;;;;;48.40;29.50;;;;;;;6.76;100.00;100351.84;4995893;28;20049;-58
2021/12/24 01:42:39;;;;;;;46.35;27.85;;;;;;;6.79;100.00;100353.22;4995750;28;20045;-57
2021/12/24 01:44:00;;;;;;;56.03;32.80;;;;;;;6.76;100.00;100353.81;4995018;28;20057;-56
2021/12/24 01:46:25;;;;;;;51.80;31.52;;;;;;;6.82;100.00;100361.72;4995215;28;20549;-58
2021/12/24 01:48:50;;;;;;;50.17;32.92;;;;;;;6.80;100.00;100363.13;4993981;28;20027;-57
2021/12/24 01:51:16;;;;;;;56.03;33.15;;;;;;;6.83;100.00;100366.09;4993716;28;20054;-56
2021/12/24 01:53:41;;;;;;;57.08;35.47;;;;;;;6.86;100.00;100356.44;4994344;28;20030;-57
2021/12/24 01:56:06;;;;;;;57.65;35.10;;;;;;;6.87;100.00;100356.13;4995314;28;20077;-58
2021/12/24 01:58:32;;;;;;;56.13;33.92;;;;;;;6.91;100.00;100363.81;4994715;28;20493;-58
2021/12/24 02:00:57;;;;;;;57.38;35.63;;;;;;;6.93;100.00;100358.84;4994764;28;20068;-57
2021/12/24 02:03:22;;;;;;;60.75;35.90;;;;;;;6.95;100.00;100353.84;4994534;28;20030;-58
2021/12/24 02:05:49;;;;;;;60.90;36.95;;;;;;;6.96;100.00;100359.06;4994698;28;20034;-57
2021/12/24 02:08:16;;;;;;;59.25;35.28;;;;;;;7.00;100.00;100353.78;4993998;28;20309;-58
2021/12/24 02:10:43;;;;;;;60.30;35.65;;;;;;;6.99;100.00;100347.47;4994638;28;20104;-58
2021/12/24 02:13:08;;;;;;;60.58;37.53;;;;;;;7.04;100.00;100349.31;4994486;28;20026;-58
2021/12/24 02:16:04;;;;;;;61.92;37.42;;;;;;;7.07;100.00;100348.75;4993944;28;20022;-58
2021/12/24 02:28:16;;;;;;;62.85;37.75;;;;;;;7.06;100.00;100344.34;4993829;28;20034;-57
2021/12/24 02:29:37;;;;;;;68.93;37.97;;;;;;;7.19;100.00;100351.06;4994182;28;20080;-57
2021/12/24 02:32:03;;;;;;;65.85;39.70;;;;;;;7.26;100.00;100347.94;4993947;28;20472;-58
2021/12/24 02:34:29;;;;;;;62.30;37.45;;;;;;;7.26;100.00;100356.22;4994002;28;20027;-58
2021/12/24 02:36:54;;;;;;;62.97;36.70;;;;;;;7.25;100.00;100355.41;4993548;28;20367;-57
2021/12/24 02:39:19;;;;;;;63.47;36.90;;;;;;;7.29;100.00;100347.38;4993583;28;20030;-58
2021/12/24 02:41:44;;;;;;;62.88;38.72;;;;;;;7.29;100.00;100356.44;4994600;28;20034;-58
2021/12/24 02:44:11;;;;;;;64.78;39.15;;;;;;;7.31;100.00;100339.66;4993972;28;20390;-58
2021/12/24 02:46:53;;;;;;;62.90;38.33;;;;;;;7.31;100.00;100340.44;4993284;28;20041;-58
2021/12/24 02:53:55;;;;;;;63.70;38.67;;;;;;;7.37;100.00;100332.94;4994232;28;20077;-58
2021/12/24 02:54:48;;;;;;;68.53;38.05;;;;;;;7.41;100.00;100335.91;4994578;28;20444;-58
2021/12/24 02:57:16;;;;;;;67.78;38.42;;;;;;;7.43;100.00;100326.25;4993524;28;20031;-58
2021/12/24 02:59:57;;;;;;;69.65;39.35;;;;;;;7.42;100.00;100332.84;4992287;28;20425;-57
2021/12/24 03:02:22;;;;;;;71.38;41.30;;;;;;;7.42;100.00;100321.84;4993431;28;20062;-57
2021/12/24 03:04:47;;;;;;;69.80;40.80;;;;;;;7.43;100.00;100325.44;4993599;28;20539;-55
2021/12/24 03:07:12;;;;;;;78.68;42.72;;;;;;;7.45;100.00;100321.25;4993137;28;20030;-56
2021/12/24 03:09:38;;;;;;;79.13;42.08;;;;;;;7.48;100.00;100325.34;4992728;28;20022;-56
2021/12/24 03:12:04;;;;;;;81.70;41.35;;;;;;;7.48;100.00;100325.34;4993156;28;20026;-57
2021/12/24 03:14:29;;;;;;;76.63;43.97;;;;;;;7.49;100.00;100324.22;4993274;28;20022;-55
2021/12/24 03:16:59;;;;;;;80.82;43.10;;;;;;;7.51;100.00;100323.94;4992514;28;20023;-56
2021/12/24 03:19:29;;;;;;;77.80;42.13;;;;;;;7.52;100.00;100325.56;4992931;28;20033;-57
2021/12/24 03:22:05;;;;;;;88.63;44.08;;;;;;;7.52;100.00;100320.06;4993054;28;20034;-57
2021/12/24 03:24:36;;;;;;;86.47;45.08;;;;;;;7.53;100.00;100318.94;4992873;28;20022;-57
2021/12/24 03:27:03;;;;;;;81.07;43.60;;;;;;;7.51;100.00;100338.53;4993760;28;20037;-58
2021/12/24 03:29:28;;;;;;;79.40;42.50;;;;;;;7.55;100.00;100341.50;4993455;28;20112;-56
2021/12/24 03:31:53;;;;;;;79.22;41.83;;;;;;;7.54;100.00;100335.19;4993703;28;20105;-57
2021/12/24 03:34:21;;;;;;;75.32;41.65;;;;;;;7.54;100.00;100329.69;4991603;28;20034;-56
2021/12/24 03:36:47;;;;;;;72.93;39.00;;;;;;;7.55;100.00;100344.25;4993522;28;20450;-56
2021/12/24 03:39:13;;;;;;;73.80;39.65;;;;;;;7.56;100.00;100340.38;4993367;28;20035;-56
2021/12/24 03:41:39;;;;;;;68.13;37.40;;;;;;;7.58;100.00;100347.22;4993123;28;20034;-56
2021/12/24 03:44:06;;;;;;;66.20;36.65;;;;;;;7.61;100.00;100346.63;4992809;28;20029;-58
2021/12/24 03:46:42;;;;;;;61.95;35.92;;;;;;;7.60;100.00;100344.19;4993300;28;20085;-57
2021/12/24 03:49:16;;;;;;;62.30;33.83;;;;;;;7.61;100.00;100354.88;4993380;28;20039;-57
2021/12/24 03:52:01;;;;;;;63.17;35.42;;;;;;;7.63;100.00;100349.91;4992228;28;20182;-56
2021/12/24 03:57:10;;;;;;;61.38;32.88;;;;;;;7.67;100.00;100352.88;4993279;28;20041;-58
2021/12/24 03:59:35;;;;;;;58.15;32.13;;;;;;;7.69;100.00;100347.06;4993245;28;20064;-57
2021/12/24 04:02:01;;;;;;;55.88;31.35;;;;;;;7.62;100.00;100323.50;4992912;28;20077;-57
2021/12/24 04:04:26;;;;;;;53.47;29.25;;;;;;;7.72;100.00;100332.72;4993194;28;20030;-56
2021/12/24 04:06:51;;;;;;;48.63;28.17;;;;;;;7.72;100.00;100335.47;4993071;28;20400;-57
2021/12/24 04:09:17;;;;;;;50.63;27.67;;;;;;;7.73;100.00;100337.09;4992417;28;20034;-57
2021/12/24 04:11:42;;;;;;;49.50;25.40;;;;;;;7.72;100.00;100336.25;4992055;28;20022;-58
2021/12/24 04:14:08;;;;;;;43.17;24.77;;;;;;;7.74;100.00;100333.22;4995971;28;20073;-58
2021/12/24 04:16:33;;;;;;;43.80;24.42;;;;;;;7.79;100.00;100330.38;4996874;28;20058;-58
2021/12/24 04:19:23;;;;;;;42.13;23.50;;;;;;;7.76;100.00;100328.22;4996567;28;20041;-58
2021/12/24 04:27:16;;;;;;;42.05;22.08;;;;;;;7.71;100.00;100342.88;4996634;28;20049;-58
2021/12/24 04:29:42;;;;;;;43.72;21.48;;;;;;;7.73;100.00;100345.38;4996716;28;20026;-58
2021/12/24 04:32:12;;;;;;;40.38;21.92;;;;;;;7.73;100.00;100348.91;4996277;28;20536;-57
2021/12/24 04:34:39;;;;;;;43.30;20.55;;;;;;;7.75;100.00;100354.94;4996804;28;20560;-58
2021/12/24 04:50:55;;;;;;;37.42;20.23;;;;;;;7.77;100.00;100338.13;4975949;28;20092;-56
2021/12/24 04:51:23;;;;;;;;;;;;;;;7.85;100.00;100344.91;4997023;28;20134;-56
2021/12/24 05:04:32;;;;;;;32.25;17.23;;;;;;;7.84;100.00;100319.28;4996119;28;20357;-58
2021/12/24 05:07:07;;;;;;;34.42;17.25;;;;;;;7.85;100.00;100323.66;4995014;28;20157;-59
2021/12/24 05:09:33;;;;;;;30.30;16.52;;;;;;;7.86;100.00;100335.50;4995651;28;20027;-59
2021/12/24 05:11:58;;;;;;;36.03;16.42;;;;;;;7.85;100.00;100342.13;4995414;28;20037;-61
2021/12/24 05:14:25;;;;;;;32.97;16.25;;;;;;;7.84;100.00;100324.78;4995367;28;20026;-57
2021/12/24 05:16:54;;;;;;;32.60;15.63;;;;;;;7.89;100.00;100332.97;4995608;28;20045;-56
2021/12/24 05:21:48;;;;;;;32.03;15.40;;;;;;;7.87;100.00;100334.41;4995832;28;20034;-57
2021/12/24 05:24:17;;;;;;;31.50;15.65;;;;;;;7.84;100.00;100332.25;4994473;28;20032;-57
2021/12/24 05:26:55;;;;;;;32.70;15.55;;;;;;;7.85;100.00;100331.13;4995033;28;20497;-58
2021/12/24 05:29:20;;;;;;;34.08;14.73;;;;;;;7.86;100.00;100335.50;4995473;28;20058;-56
2021/12/24 05:31:46;;;;;;;32.47;14.95;;;;;;;7.85;100.00;100331.13;4995747;28;20101;-57
2021/12/24 05:34:14;;;;;;;32.33;14.45;;;;;;;7.81;100.00;100345.47;4995333;28;20028;-56
2021/12/24 05:36:39;;;;;;;30.98;13.88;;;;;;;7.86;100.00;100346.53;4995903;28;20034;-56
2021/12/24 05:39:05;;;;;;;30.90;14.40;;;;;;;7.85;100.00;100353.97;4994491;28;20482;-55
2021/12/24 05:41:31;;;;;;;29.27;13.48;;;;;;;7.81;100.00;100359.25;4994637;28;20109;-56
2021/12/24 05:43:58;;;;;;;32.60;14.18;;;;;;;7.81;100.00;100352.94;4994586;28;20110;-57
2021/12/24 05:46:24;;;;;;;28.90;14.27;;;;;;;7.81;100.00;100358.44;4995187;28;20089;-56
2021/12/24 05:48:49;;;;;;;30.08;14.10;;;;;;;7.79;100.00;100369.75;4993552;28;20019;-57
2021/12/24 05:51:14;;;;;;;32.85;14.55;;;;;;;7.79;100.00;100371.69;4995378;28;20046;-59
2021/12/24 05:53:39;;;;;;;30.42;13.80;;;;;;;7.76;100.00;100364.03;4994550;28;20054;-59
2021/12/24 05:56:05;;;;;;;28.27;13.65;;;;;;;7.77;100.00;100365.66;4995097;28;20018;-59
2021/12/24 05:58:30;;;;;;;31.13;14.35;;;;;;;7.77;100.00;100360.97;4994813;28;20023;-59
2021/12/24 06:00:56;;;;;;;32.13;14.77;;;;;;;7.76;100.00;100366.78;4994204;28;20034;-59
2021/12/24 06:03:23;;;;;;;31.40;14.65;;;;;;;7.77;100.00;100376.66;4993966;28;20430;-59
2021/12/24 06:05:48;;;;;;;30.77;13.95;;;;;;;7.76;100.00;100378.63;4993892;28;20520;-58
2021/12/24 06:08:14;;;;;;;28.55;13.65;;;;;;;7.77;100.00;100376.66;4994299;28;20030;-59
2021/12/24 06:10:41;;;;;;;29.17;13.90;;;;;;;7.74;100.00;100375.34;4994283;28;20054;-59
2021/12/24 06:13:07;;;;;;;31.10;14.30;;;;;;;7.73;100.00;100364.63;4994765;28;20022;-59
2021/12/24 06:15:41;;;;;;;31.10;14.55;;;;;;;7.74;100.00;100375.34;4994196;28;20037;-58
2021/12/24 06:18:18;;;;;;;30.75;12.98;;;;;;;7.75;100.00;100365.97;4993266;28;20026;-58
2021/12/24 06:20:43;;;;;;;31.27;13.60;;;;;;;7.75;100.00;100376.97;4993924;28;20113;-57
2021/12/24 06:23:09;;;;;;;28.80;13.43;;;;;;;7.71;100.00;100378.69;4994045;28;20573;-57
2021/12/24 06:25:35;;;;;;;32.05;13.15;;;;;;;7.71;100.00;100375.94;4994726;28;20442;-58
2021/12/24 06:28:00;;;;;;;31.98;14.07;;;;;;;7.69;100.00;100378.19;4994545;28;20022;-58
2021/12/24 06:30:29;;;;;;;33.88;14.18;;;;;;;7.69;100.00;100374.59;4994206;28;20025;-58
2021/12/24 06:32:58;;;;;;;31.25;14.32;;;;;;;7.67;100.00;100372.16;4994312;28;20022;-58
2021/12/24 06:35:24;;;;;;;27.98;13.43;;;;;;;7.67;100.00;100366.66;4994136;28;20034;-58
2021/12/24 06:37:54;;;;;;;27.17;13.27;;;;;;;7.71;100.00;100375.94;4993231;28;20041;-58
2021/12/24 06:40:19;;;;;;;29.60;13.13;;;;;;;7.73;100.00;100370.16;4994625;28;20037;-59
2021/12/24 06:42:45;;;;;;;28.95;13.65;;;;;;;7.68;100.00;100371.03;4994647;28;20034;-58
2021/12/24 06:45:11;;;;;;;32.13;12.93;;;;;;;7.69;100.00;100371.84;4994257;28;20034;-58
2021/12/24 06:47:36;;;;;;;29.25;13.40;;;;;;;7.69;100.00;100374.59;4994690;28;20033;-58
2021/12/24 06:50:03;;;;;;;34.47;15.32;;;;;;;7.67;100.00;100374.91;4992757;28;20050;-58
2021/12/24 06:52:29;;;;;;;29.05;14.35;;;;;;;7.69;100.00;100375.44;4994076;28;20113;-58
2021/12/24 06:54:55;;;;;;;30.83;14.93;;;;;;;7.66;100.00;100376.03;4993631;28;20069;-58
2021/12/24 06:57:20;;;;;;;32.15;14.43;;;;;;;7.68;100.00;100372.97;4993767;28;20121;-57
2021/12/24 06:59:47;;;;;;;29.77;14.13;;;;;;;7.69;100.00;100374.59;4993882;28;20034;-57
2021/12/24 07:02:12;;;;;;;31.63;13.63;;;;;;;7.68;100.00;100376.53;4993695;28;20393;-57
2021/12/24 07:04:37;;;;;;;29.35;14.13;;;;;;;7.67;100.00;100372.16;4993775;28;20105;-58
2021/12/24 07:07:03;;;;;;;28.17;13.18;;;;;;;7.70;100.00;100371.53;4993960;28;20037;-58
2021/12/24 07:09:28;;;;;;;29.63;13.68;;;;;;;7.70;100.00;100370.72;4993807;28;20038;-58
2021/12/24 07:11:53;;;;;;;31.98;13.65;;;;;;;7.71;100.00;100364.09;4993677;28;20110;-58
2021/12/24 07:14:19;;;;;;;31.70;14.15;;;;;;;7.71;100.00;100362.16;4993900;28;20065;-58
2021/12/24 07:16:44;;;;;;;30.95;14.65;;;;;;;7.68;100.00;100373.78;4993762;28;20490;-58
2021/12/24 07:19:09;;;;;;;29.95;14.10;;;;;;;7.67;100.00;100371.31;4993871;28;20030;-58
2021/12/24 07:21:35;;;;;;;31.00;13.48;;;;;;;7.67;100.00;100368.56;4993963;28;20110;-58
2021/12/24 07:24:02;;;;;;;31.00;14.60;;;;;;;7.65;100.00;100366.91;4993873;28;20026;-58
2021/12/24 07:26:27;;;;;;;32.00;13.20;;;;;;;7.66;100.00;100370.50;4993786;28;20033;-59
2021/12/24 07:28:52;;;;;;;30.35;14.45;;;;;;;7.66;100.00;100376.03;4993852;28;20023;-57
2021/12/24 07:31:17;;;;;;;30.98;14.73;;;;;;;7.67;100.00;100382.34;4993860;28;20037;-58
2021/12/24 07:33:43;;;;;;;30.67;14.88;;;;;;;7.65;100.00;100388.16;4993588;28;20540;-58
2021/12/24 07:36:08;;;;;;;32.95;15.20;;;;;;;7.69;100.00;100388.38;4993407;28;20057;-58
2021/12/24 07:38:33;;;;;;;28.67;14.23;;;;;;;7.63;100.00;100391.19;4993593;28;20018;-59
2021/12/24 07:41:00;;;;;;;29.98;15.05;;;;;;;7.63;100.00;100395.88;4993498;28;20053;-58
2021/12/24 07:43:25;;;;;;;34.42;15.15;;;;;;;7.63;100.00;100396.72;4993414;28;20061;-58
2021/12/24 07:45:51;;;;;;;32.15;14.35;;;;;;;7.63;100.00;100399.47;4993451;28;20462;-58
2021/12/24 07:48:26;;;;;;;29.60;14.15;;;;;;;7.67;100.00;100393.34;4995298;28;20027;-58
2021/12/24 07:53:17;;;;;;;29.83;15.60;;;;;;;7.68;100.00;100392.22;4997195;28;20049;-60
2021/12/24 07:55:43;;;;;;;30.48;14.75;;;;;;;7.69;100.00;100396.63;4997347;28;20433;-58
2021/12/24 07:58:10;;;;;;;31.48;14.48;;;;;;;7.68;100.00;100401.31;4997271;28;20544;-58
2021/12/24 08:00:38;;;;;;;32.40;15.27;;;;;;;7.61;100.00;100381.59;4997426;28;20029;-58
2021/12/24 08:03:04;;;;;;;28.77;14.05;;;;;;;7.63;100.00;100387.63;4997055;28;20030;-58
2021/12/24 08:05:31;;;;;;;32.63;14.73;;;;;;;7.65;100.00;100397.22;4997371;28;20030;-58
2021/12/24 08:07:56;;;;;;;30.77;14.05;;;;;;;7.68;100.00;100393.06;4997319;28;20113;-58
2021/12/24 08:10:24;;;;;;;34.08;15.00;;;;;;;7.70;100.00;100393.56;4997078;28;20110;-58
2021/12/24 08:12:49;;;;;;;27.42;13.88;;;;;;;7.74;100.00;100391.88;4997042;28;20058;-57
2021/12/24 08:15:17;;;;;;;32.42;14.52;;;;;;;7.72;100.00;100393.28;4997237;28;20525;-59
2021/12/24 08:17:42;;;;;;;29.25;13.35;;;;;;;7.79;99.49;100393.72;4997034;28;20061;-60
2021/12/24 08:20:08;;;;;;;31.35;14.32;;;;;;;7.78;99.64;100389.31;4996673;28;20066;-59
2021/12/24 08:22:35;;;;;;;30.30;14.63;;;;;;;7.79;98.97;100377.19;4997138;28;20076;-58
2021/12/24 08:25:00;;;;;;;27.95;14.15;;;;;;;7.76;99.66;100377.78;4996771;28;20080;-58
2021/12/24 08:27:26;;;;;;;29.27;14.20;;;;;;;7.77;99.42;100384.94;4992817;28;20490;-60
2021/12/24 08:29:52;;;;;;;30.52;14.35;;;;;;;7.79;99.36;100371.69;4975238;28;20096;-57
2021/12/24 08:32:18;;;;;;;30.27;13.90;;;;;;;7.79;98.99;100383.50;4975185;28;20375;-57
2021/12/24 08:34:44;;;;;;;27.77;13.77;;;;;;;7.78;99.33;100376.41;4975207;28;20042;-57
2021/12/24 08:37:09;;;;;;;30.08;14.25;;;;;;;7.80;99.23;100376.09;4974988;28;20030;-57
2021/12/24 08:39:35;;;;;;;31.35;13.40;;;;;;;7.82;98.98;100393.13;4974617;28;20039;-57
2021/12/24 08:42:00;;;;;;;28.83;13.65;;;;;;;7.84;98.80;100388.13;4974675;28;20056;-57
2021/12/24 08:44:29;;;;;;;28.88;12.60;;;;;;;7.84;98.94;100388.13;4975025;28;20387;-57
2021/12/24 08:46:54;;;;;;;27.50;12.95;;;;;;;7.87;98.50;100387.53;4974635;28;20041;-58
2021/12/24 08:49:21;;;;;;;27.50;12.82;;;;;;;7.87;98.43;100379.28;4974541;28;20058;-58
2021/12/24 08:51:50;;;;;;;27.27;13.38;;;;;;;7.89;97.85;100377.03;4973090;28;20107;-58
2021/12/24 08:54:16;;;;;;;28.27;14.07;;;;;;;7.87;98.14;100362.75;4974311;28;20041;-57
2021/12/24 08:56:42;;;;;;;30.10;13.85;;;;;;;7.86;98.24;100374.06;4973905;28;20393;-58
2021/12/24 08:59:08;;;;;;;33.45;15.13;;;;;;;7.87;98.05;100370.19;4974279;28;20031;-59
2021/12/24 09:01:33;;;;;;;30.75;14.77;;;;;;;7.87;97.79;100371.00;4974797;28;20045;-58
2021/12/24 09:03:59;;;;;;;31.83;16.08;;;;;;;7.88;97.71;100369.91;4974745;28;20031;-58
2021/12/24 09:06:25;;;;;;;31.95;15.73;;;;;;;7.89;97.54;100356.94;4974634;28;20065;-58
2021/12/24 09:08:50;;;;;;;37.08;15.95;;;;;;;7.89;98.10;100363.28;4973820;28;20066;-58
2021/12/24 09:11:15;;;;;;;34.42;16.77;;;;;;;7.91;97.87;100363.78;4974044;28;20062;-58
2021/12/24 09:13:41;;;;;;;31.20;16.85;;;;;;;7.93;97.74;100377.25;4973960;28;20034;-57
2021/12/24 09:16:06;;;;;;;33.63;15.85;;;;;;;7.93;97.76;100364.31;4974102;28;20023;-58
2021/12/24 09:18:32;;;;;;;33.45;15.85;;;;;;;7.93;97.49;100364.31;4974283;28;20031;-58
2021/12/24 09:21:01;;;;;;;32.80;15.18;;;;;;;7.95;97.28;100370.31;4973765;28;20039;-56
2021/12/24 09:23:26;;;;;;;32.08;15.98;;;;;;;7.93;97.83;100367.06;4974267;28;20549;-58
2021/12/24 09:25:51;;;;;;;31.42;15.98;;;;;;;7.94;97.40;100363.19;4974119;28;20045;-58
2021/12/24 09:28:17;;;;;;;33.53;15.45;;;;;;;7.93;97.83;100364.31;4973736;28;20086;-58
2021/12/24 09:30:42;;;;;;;32.72;14.75;;;;;;;7.92;97.49;100368.19;4974203;28;20027;-58
2021/12/24 09:33:07;;;;;;;36.45;18.05;;;;;;;7.92;97.38;100368.19;5005063;28;20097;-57
2021/12/24 09:35:33;;;;;;;33.53;14.55;;;;;;;7.92;97.47;100384.72;4973974;28;20031;-58
2021/12/24 09:38:00;;;;;;;32.50;14.93;;;;;;;7.94;97.38;100367.88;4973525;28;20372;-59
2021/12/24 09:40:25;;;;;;;35.67;15.27;;;;;;;7.91;97.71;100376.72;4973745;28;20035;-57
2021/12/24 09:42:52;;;;;;;32.45;15.88;;;;;;;7.92;97.45;100367.34;4973762;28;20441;-57
2021/12/24 09:45:18;;;;;;;36.85;15.32;;;;;;;7.92;97.79;100381.97;4972818;28;20479;-58
2021/12/24 09:47:43;;;;;;;29.35;14.82;;;;;;;7.90;98.11;100373.19;4973783;28;20085;-59
2021/12/24 09:50:13;;;;;;;31.50;13.93;;;;;;;7.87;97.80;100362.75;4971929;28;20133;-58
2021/12/24 09:52:41;;;;;;;30.95;14.38;;;;;;;7.89;97.49;100354.19;4973065;28;20041;-56
2021/12/24 09:55:09;;;;;;;28.25;13.38;;;;;;;7.92;97.41;100357.19;4973142;28;20128;-58
2021/12/24 09:57:34;;;;;;;30.02;13.07;;;;;;;8.00;96.88;100365.88;4973531;28;20099;-54
2021/12/24 09:59:59;;;;;;;29.13;13.02;;;;;;;8.02;96.61;100360.88;4973497;28;20576;-57
2021/12/24 10:02:39;;;;;;;31.50;14.95;;;;;;;8.00;97.33;100368.63;4973433;28;20114;-58
2021/12/24 10:05:23;;;;;;;29.52;12.65;;;;;;;8.01;97.01;100362.78;4973202;28;20034;-57
2021/12/24 10:07:48;;;;;;;30.02;12.85;;;;;;;8.01;97.45;100359.25;4973278;28;20138;-58
2021/12/24 10:10:20;;;;;;;31.83;13.25;;;;;;;8.02;96.79;100350.66;4972757;28;20537;-58
2021/12/24 10:12:46;;;;;;;30.15;13.05;;;;;;;7.99;96.51;100353.22;4973356;28;20058;-58
2021/12/24 10:15:11;;;;;;;27.60;13.02;;;;;;;8.05;96.47;100349.25;4973410;28;20037;-58
2021/12/24 10:17:38;;;;;;;30.00;12.80;;;;;;;8.07;96.24;100361.63;4972988;28;20397;-58
2021/12/24 10:20:20;;;;;;;31.23;12.70;;;;;;;8.03;96.83;100354.25;4972970;28;20101;-58
2021/12/24 10:22:51;;;;;;;27.92;12.98;;;;;;;8.07;96.37;100364.38;4973696;28;20146;-57
2021/12/24 10:25:23;;;;;;;28.13;12.85;;;;;;;8.12;96.32;100367.03;4973099;28;20027;-58
2021/12/24 10:27:49;;;;;;;30.67;13.25;;;;;;;8.16;96.47;100363.69;4973262;28;20106;-58
2021/12/24 10:30:19;;;;;;;33.22;13.05;;;;;;;8.18;95.48;100347.63;4973006;28;20129;-58
2021/12/24 10:32:44;;;;;;;30.85;13.27;;;;;;;8.20;95.51;100353.66;4973038;28;20114;-58
2021/12/24 10:35:18;;;;;;;31.00;13.05;;;;;;;8.28;95.86;100356.56;4973186;28;20560;-58
2021/12/24 10:37:44;;;;;;;30.42;13.63;;;;;;;8.35;95.61;100352.59;4973141;28;20118;-59
2021/12/24 10:40:10;;;;;;;32.38;13.95;;;;;;;8.35;95.33;100356.19;4972931;28;20450;-58
2021/12/24 10:42:38;;;;;;;30.35;12.93;;;;;;;8.36;95.32;100345.94;4972753;28;20050;-60
2021/12/24 10:45:17;;;;;;;30.10;13.40;;;;;;;8.42;95.13;100353.00;4972870;28;20030;-58
2021/12/24 10:47:43;;;;;;;29.50;13.98;;;;;;;8.42;95.14;100345.56;4972578;28;20831;-58
2021/12/24 10:53:11;;;;;;;31.67;14.88;;;;;;;8.43;94.76;100347.19;4972637;28;20039;-59
2021/12/24 10:55:44;;;;;;;32.38;14.27;;;;;;;8.41;95.08;100346.69;4972672;28;20114;-59
2021/12/24 10:58:16;;;;;;;31.45;13.65;;;;;;;8.40;95.43;100347.81;4972571;28;20042;-58
2021/12/24 11:00:54;;;;;;;31.40;14.77;;;;;;;8.37;95.59;100339.31;4972279;28;20506;-56
2021/12/24 11:03:28;;;;;;;33.28;14.68;;;;;;;8.35;94.87;100333.28;4972436;28;20512;-59
2021/12/24 11:06:02;;;;;;;32.50;14.73;;;;;;;8.34;95.54;100346.28;4972545;28;20043;-58
2021/12/24 11:08:27;;;;;;;31.83;14.80;;;;;;;8.32;95.26;100345.75;4972300;28;20045;-58
2021/12/24 11:10:55;;;;;;;34.42;13.52;;;;;;;8.33;95.34;100343.78;4972306;28;20027;-58
2021/12/24 11:13:38;;;;;;;33.33;13.48;;;;;;;8.28;95.61;100344.69;4972147;28;20030;-58
2021/12/24 11:16:06;;;;;;;29.33;13.77;;;;;;;8.25;96.12;100343.38;4972113;28;20102;-58
2021/12/24 11:18:39;;;;;;;29.58;14.20;;;;;;;8.27;95.63;100343.91;4972176;28;20039;-58
2021/12/24 11:21:07;;;;;;;27.58;13.75;;;;;;;8.28;95.55;100350.22;4972557;28;20029;-58
2021/12/24 11:23:35;;;;;;;31.25;13.90;;;;;;;8.30;95.28;100352.69;4971463;28;20113;-57
2021/12/24 11:26:04;;;;;;;32.28;14.18;;;;;;;8.28;95.27;100339.19;4971083;28;20525;-58
2021/12/24 11:28:30;;;;;;;30.00;12.68;;;;;;;8.33;95.49;100346.56;4972132;28;20039;-58
2021/12/24 11:30:58;;;;;;;29.92;13.98;;;;;;;8.27;95.11;100340.31;4972302;28;20049;-58
2021/12/24 11:33:29;;;;;;;33.05;13.98;;;;;;;8.30;95.17;100341.66;4971899;28;20082;-58
2021/12/24 11:35:57;;;;;;;32.70;14.55;;;;;;;8.28;95.19;100340.03;4972221;28;20039;-58
2021/12/24 11:38:26;;;;;;;29.50;13.98;;;;;;;8.34;95.29;100346.28;4971875;28;20070;-58
2021/12/24 11:40:54;;;;;;;31.33;14.00;;;;;;;8.39;95.31;100348.91;4971763;28;20030;-58
2021/12/24 11:43:21;;;;;;;30.88;13.77;;;;;;;8.43;95.26;100349.13;4970945;28;20038;-58
2021/12/24 11:45:47;;;;;;;29.00;13.80;;;;;;;8.47;95.28;100346.56;4971583;28;20443;-58
2021/12/24 11:48:12;;;;;;;32.53;14.63;;;;;;;8.50;94.95;100334.97;4971756;28;20046;-58
2021/12/24 11:50:38;;;;;;;29.10;13.32;;;;;;;8.51;95.16;100334.66;4970441;28;20054;-58
2021/12/24 11:53:08;;;;;;;31.27;13.90;;;;;;;8.54;94.67;100328.56;4971934;28;20038;-58
2021/12/24 11:55:37;;;;;;;30.73;14.30;;;;;;;8.56;94.31;100326.31;4971964;28;20030;-58
2021/12/24 11:58:07;;;;;;;30.67;14.88;;;;;;;8.53;94.40;100324.16;4971136;28;20050;-58
2021/12/24 12:00:39;;;;;;;30.55;14.07;;;;;;;8.58;94.65;100329.59;4971713;28;20035;-57
2021/12/24 12:03:05;;;;;;;32.72;15.43;;;;;;;8.62;94.07;100324.28;4970993;28;20045;-58
2021/12/24 12:05:33;;;;;;;30.20;14.50;;;;;;;8.63;93.90;100330.59;4981533;28;20030;-58
2021/12/24 12:08:27;;;;;;;34.47;15.23;;;;;;;8.68;94.00;100327.75;4991198;28;20242;-58
2021/12/24 12:11:01;;;;;;;31.40;14.57;;;;;;;8.65;93.85;100317.31;4991212;28;20049;-58
2021/12/24 12:13:38;;;;;;;33.78;14.77;;;;;;;8.70;93.67;100328.25;4991167;28;20121;-59
2021/12/24 12:16:05;;;;;;;32.33;15.38;;;;;;;8.69;93.61;100321.13;4991642;28;20089;-58
2021/12/24 12:18:43;;;;;;;36.10;16.58;;;;;;;8.66;93.47;100321.72;4990862;28;20050;-58
2021/12/24 12:21:14;;;;;;;33.95;16.02;;;;;;;8.65;93.79;100301.59;4991097;28;20038;-59
2021/12/24 12:26:33;;;;;;;33.97;15.48;;;;;;;8.72;93.75;100323.25;4991314;28;20051;-58
2021/12/24 12:29:20;;;;;;;34.95;16.45;;;;;;;8.73;93.17;100319.38;4990742;28;20035;-58
2021/12/24 12:31:52;;;;;;;35.42;16.83;;;;;;;8.70;93.01;100314.44;4990546;28;20077;-58
2021/12/24 12:34:47;;;;;;;35.10;17.45;;;;;;;8.68;93.69;100322.25;4992370;28;20500;-58
2021/12/24 12:37:27;;;;;;;36.33;17.48;;;;;;;8.62;93.58;100318.75;4994060;28;20034;-58
2021/12/24 12:39:54;;;;;;;33.72;17.40;;;;;;;8.65;93.55;100315.38;4994706;28;20114;-59
2021/12/24 12:42:20;;;;;;;36.33;18.73;;;;;;;8.68;93.86;100327.75;4994460;28;20041;-59